Time;durP1;ratioP1;P1;durP2;ratioP2;P2;SDS_P1;SDS_P2;PMS_P1;PMS_P2;Temp;Humidity;BMP_temperature;BMP_pressure;BME280_temperature;BME280_humidity;BME280_pressure;Samples;Min_cycle;Max_cycle;Signal;HPM_P1;HPM_P2
2022/04/10 00:00:59;;;;;;;6.95;1.35;;;4.60;99.90;;;;;;5093528;28;20039;-37
2022/04/10 00:03:25;;;;;;;5.75;1.33;;;4.50;99.90;;;;;;5093913;28;20029;-37
2022/04/10 00:05:52;;;;;;;8.45;1.85;;;4.50;99.90;;;;;;5093040;28;20433;-38
2022/04/10 00:08:18;;;;;;;7.72;1.88;;;4.40;99.90;;;;;;5093498;28;20047;-39
2022/04/10 00:10:43;;;;;;;7.68;2.03;;;4.40;99.90;;;;;;5092100;28;20088;-38
2022/04/10 00:13:10;;;;;;;6.13;1.42;;;4.40;99.90;;;;;;5093213;28;20480;-43
2022/04/10 00:15:35;;;;;;;5.38;1.83;;;4.40;99.90;;;;;;5093799;28;20051;-38
2022/04/10 00:18:01;;;;;;;4.55;1.85;;;4.40;99.90;;;;;;5088741;28;20027;-37
2022/04/10 00:20:27;;;;;;;7.88;1.95;;;4.30;99.90;;;;;;5092938;28;20040;-37
2022/04/10 00:22:53;;;;;;;7.05;1.80;;;4.30;99.90;;;;;;5094086;28;20045;-38
2022/04/10 00:25:20;;;;;;;2.38;1.45;;;4.30;99.90;;;;;;5093611;28;20024;-35
2022/04/10 00:27:45;;;;;;;1.67;1.13;;;4.30;99.90;;;;;;5091629;28;20487;-38
2022/04/10 00:30:14;;;;;;;8.15;1.80;;;4.30;99.90;;;;;;5085600;28;20036;-37
2022/04/10 00:32:40;;;;;;;4.75;1.70;;;4.30;99.90;;;;;;5075890;28;20028;-37
2022/04/10 00:35:07;;;;;;;5.25;1.58;;;4.20;99.90;;;;;;5094179;28;20552;-37
2022/04/10 00:37:37;;;;;;;3.42;1.80;;;4.20;99.90;;;;;;5093600;28;20024;-38
2022/04/10 00:40:04;;;;;;;4.28;1.60;;;4.20;99.90;;;;;;5092014;28;20081;-38
2022/04/10 00:42:34;;;;;;;7.13;1.92;;;4.10;99.90;;;;;;5092531;28;20031;-37
2022/04/10 00:45:00;;;;;;;8.15;1.83;;;4.10;99.90;;;;;;5093584;28;20024;-37
2022/04/10 00:47:26;;;;;;;13.60;2.17;;;4.10;99.90;;;;;;5092476;28;20028;-38
2022/04/10 00:49:52;;;;;;;8.30;1.52;;;4.10;99.90;;;;;;5091498;28;20468;-37
2022/04/10 00:52:19;;;;;;;6.93;2.15;;;4.00;99.90;;;;;;5093425;28;20028;-37
2022/04/10 00:54:46;;;;;;;11.53;1.73;;;4.00;99.90;;;;;;5093207;28;20537;-37
2022/04/10 00:57:12;;;;;;;8.80;1.50;;;4.00;99.90;;;;;;5093541;28;20024;-38
2022/04/10 00:59:39;;;;;;;11.25;1.83;;;4.00;99.90;;;;;;5092115;28;20081;-37
2022/04/10 01:02:05;;;;;;;5.70;1.75;;;4.00;99.90;;;;;;5087042;28;20028;-40
2022/04/10 01:04:31;;;;;;;7.82;1.42;;;4.00;99.90;;;;;;5093495;28;20020;-38
2022/04/10 01:07:00;;;;;;;6.07;1.75;;;4.00;99.90;;;;;;5092689;28;20039;-37
2022/04/10 01:09:29;;;;;;;7.53;1.35;;;4.00;99.90;;;;;;5088887;28;20023;-38
2022/04/10 01:11:55;;;;;;;7.15;2.25;;;4.00;99.90;;;;;;5092929;28;20544;-37
2022/04/10 01:14:21;;;;;;;1.73;1.38;;;4.00;99.90;;;;;;5092725;28;20028;-36
2022/04/10 01:16:47;;;;;;;5.45;1.73;;;3.90;99.90;;;;;;5093246;28;20023;-36
2022/04/10 01:19:15;;;;;;;7.82;1.80;;;4.00;99.90;;;;;;5092097;28;20540;-38
2022/04/10 01:21:44;;;;;;;;;;;3.90;99.90;;;;;;5092971;28;20095;-38
2022/04/10 01:24:11;;;;;;;6.30;1.70;;;3.90;99.90;;;;;;5093272;28;19915;-38
2022/04/10 01:26:37;;;;;;;6.50;2.17;;;3.90;99.90;;;;;;5093221;28;20020;-37
2022/04/10 01:29:05;;;;;;;5.75;1.50;;;3.80;99.90;;;;;;5092053;28;20108;-39
2022/04/10 01:31:33;;;;;;;8.57;2.65;;;3.80;99.90;;;;;;5093190;28;20081;-38
2022/04/10 01:34:06;;;;;;;4.32;1.48;;;3.80;99.90;;;;;;5092513;28;20079;-38
2022/04/10 01:36:33;;;;;;;5.82;1.17;;;3.70;99.90;;;;;;5092418;28;20487;-43
2022/04/10 01:39:02;;;;;;;4.20;1.33;;;3.70;99.90;;;;;;5093300;28;20032;-42
2022/04/10 01:41:30;;;;;;;6.43;1.58;;;3.70;99.90;;;;;;5094646;28;20028;-37
2022/04/10 01:43:56;;;;;;;6.35;1.55;;;3.60;99.90;;;;;;5097451;28;20518;-38
2022/04/10 01:46:24;;;;;;;7.63;1.92;;;3.60;99.90;;;;;;5095893;28;20048;-37
2022/04/10 01:48:50;;;;;;;4.75;1.73;;;3.60;99.90;;;;;;5095097;28;20109;-36
2022/04/10 01:51:15;;;;;;;8.27;1.42;;;3.60;99.90;;;;;;5096580;28;20108;-39
2022/04/10 01:53:41;;;;;;;4.03;1.27;;;3.60;99.90;;;;;;5096977;28;20039;-38
2022/04/10 01:56:08;;;;;;;4.55;1.50;;;3.60;99.90;;;;;;5094581;28;20514;-40
2022/04/10 01:58:36;;;;;;;5.65;1.25;;;3.60;99.90;;;;;;5095749;28;20020;-37
2022/04/10 02:01:03;;;;;;;2.88;1.13;;;3.60;99.90;;;;;;5096527;28;20529;-36
2022/04/10 02:03:29;;;;;;;9.18;1.63;;;3.70;99.90;;;;;;5096754;28;20016;-38
2022/04/10 02:05:55;;;;;;;3.47;1.10;;;3.60;99.90;;;;;;5087409;28;20434;-36
2022/04/10 02:08:21;;;;;;;2.35;0.98;;;3.60;99.90;;;;;;5080150;28;20040;-37
2022/04/10 02:10:47;;;;;;;4.90;1.30;;;3.70;99.90;;;;;;5090729;28;20494;-38
2022/04/10 02:13:13;;;;;;;3.35;1.13;;;3.70;99.90;;;;;;5094199;28;20032;-37
2022/04/10 02:15:39;;;;;;;6.05;1.17;;;3.70;99.90;;;;;;5094353;28;20028;-36
2022/04/10 02:18:06;;;;;;;6.07;1.25;;;3.80;99.90;;;;;;5094222;28;20136;-35
2022/04/10 02:20:32;;;;;;;6.15;1.17;;;3.80;99.90;;;;;;5095731;28;20500;-36
2022/04/10 02:22:59;;;;;;;3.58;1.10;;;3.80;99.90;;;;;;5096443;28;20020;-37
2022/04/10 02:25:24;;;;;;;5.88;1.50;;;3.80;99.90;;;;;;5094704;28;20047;-38
2022/04/10 02:27:50;;;;;;;4.72;1.08;;;3.80;99.90;;;;;;5084138;28;20056;-37
2022/04/10 02:30:16;;;;;;;5.28;1.10;;;3.80;99.90;;;;;;5074657;28;20492;-38
2022/04/10 02:32:42;;;;;;;5.70;1.58;;;3.80;99.90;;;;;;5091178;28;20429;-38
2022/04/10 02:35:08;;;;;;;8.32;1.50;;;3.80;99.90;;;;;;5094511;28;20059;-38
2022/04/10 02:37:34;;;;;;;8.57;1.20;;;3.80;99.90;;;;;;5093287;28;20059;-46
2022/04/10 02:40:00;;;;;;;3.60;1.08;;;3.80;99.90;;;;;;5094099;28;20496;-38
2022/04/10 02:42:27;;;;;;;4.10;1.13;;;3.80;99.90;;;;;;5095499;28;20050;-40
2022/04/10 02:44:53;;;;;;;12.43;0.93;;;3.80;99.90;;;;;;5086120;28;20024;-38
2022/04/10 02:47:19;;;;;;;10.68;2.10;;;3.90;99.90;;;;;;5095949;28;20103;-37
2022/04/10 02:49:46;;;;;;;6.00;1.00;;;3.80;99.90;;;;;;5095197;28;20110;-37
2022/04/10 02:52:12;;;;;;;4.75;1.25;;;3.80;99.90;;;;;;5095155;28;20103;-37
2022/04/10 02:54:38;;;;;;;12.13;1.20;;;3.80;99.90;;;;;;5094845;28;20055;-36
2022/04/10 02:57:04;;;;;;;3.28;0.85;;;3.80;99.90;;;;;;5092735;28;20074;-36
2022/04/10 02:59:32;;;;;;;8.50;1.00;;;3.80;99.90;;;;;;5089738;28;20099;-35
2022/04/10 03:01:58;;;;;;;9.45;1.60;;;3.80;99.90;;;;;;5095364;28;20126;-36
2022/04/10 03:04:23;;;;;;;4.63;1.83;;;3.80;99.90;;;;;;5094755;28;20024;-35
2022/04/10 03:06:49;;;;;;;3.28;0.73;;;3.80;99.90;;;;;;5094569;28;20077;-35
2022/04/10 03:09:14;;;;;;;3.88;1.52;;;3.80;99.90;;;;;;5094981;28;20035;-37
2022/04/10 03:11:40;;;;;;;6.55;1.50;;;3.80;99.90;;;;;;5095737;28;20021;-37
2022/04/10 03:14:06;;;;;;;7.63;1.30;;;3.80;99.90;;;;;;5095352;28;20032;-36
2022/04/10 03:16:31;;;;;;;10.32;1.30;;;3.80;99.90;;;;;;5093949;28;20028;-36
2022/04/10 03:18:57;;;;;;;2.50;1.10;;;3.80;99.90;;;;;;5094199;28;20044;-35
2022/04/10 03:21:23;;;;;;;1.20;1.10;;;3.80;99.90;;;;;;5093295;28;20032;-37
2022/04/10 03:23:48;;;;;;;2.05;1.17;;;3.80;99.90;;;;;;5092533;28;20040;-38
2022/04/10 03:26:14;;;;;;;2.08;1.02;;;3.80;99.90;;;;;;5093285;28;20069;-42
2022/04/10 03:28:39;;;;;;;1.20;0.90;;;3.70;99.90;;;;;;5094945;28;20471;-36
2022/04/10 03:31:05;;;;;;;2.10;0.80;;;3.70;99.90;;;;;;5095171;28;20069;-38
2022/04/10 03:33:30;;;;;;;3.20;1.75;;;3.70;99.90;;;;;;5093837;28;20028;-38
2022/04/10 03:35:56;;;;;;;2.92;1.20;;;3.70;99.90;;;;;;5093011;28;20479;-37
2022/04/10 03:38:22;;;;;;;7.55;1.00;;;3.70;99.90;;;;;;5094964;28;20035;-37
2022/04/10 03:40:48;;;;;;;7.88;1.88;;;3.60;99.90;;;;;;5094909;28;20500;-37
2022/04/10 03:43:14;;;;;;;3.40;1.48;;;3.60;99.90;;;;;;5094897;28;20103;-37
2022/04/10 03:45:40;;;;;;;5.50;1.20;;;3.60;99.90;;;;;;5093689;28;20016;-36
2022/04/10 03:48:06;;;;;;;3.10;1.23;;;3.60;99.90;;;;;;5094109;28;20021;-37
2022/04/10 03:50:33;;;;;;;2.20;0.95;;;3.60;99.90;;;;;;5093947;28;20025;-36
2022/04/10 03:53:00;;;;;;;10.30;1.60;;;3.70;99.90;;;;;;5094150;28;20028;-36
2022/04/10 03:55:25;;;;;;;7.18;2.17;;;3.70;99.90;;;;;;5092611;28;20020;-36
2022/04/10 03:57:51;;;;;;;6.22;1.05;;;3.60;99.90;;;;;;5094547;28;20028;-38
2022/04/10 04:00:17;;;;;;;7.45;1.13;;;3.60;99.90;;;;;;5093750;28;20023;-38
2022/04/10 04:02:43;;;;;;;6.43;0.90;;;3.60;99.90;;;;;;5093710;28;20035;-35
2022/04/10 04:05:09;;;;;;;6.60;0.77;;;3.60;99.90;;;;;;5092336;28;20059;-37
2022/04/10 04:07:35;;;;;;;14.82;2.22;;;3.60;99.90;;;;;;5094463;28;20499;-40
2022/04/10 04:10:01;;;;;;;4.93;2.00;;;3.60;99.90;;;;;;5093245;28;20064;-42
2022/04/10 04:12:27;;;;;;;9.68;1.40;;;3.60;99.90;;;;;;5094271;28;20101;-38
2022/04/10 04:14:52;;;;;;;3.35;1.00;;;3.60;99.90;;;;;;5093533;28;20055;-36
2022/04/10 04:17:18;;;;;;;6.03;1.48;;;3.60;99.90;;;;;;5093242;28;20032;-36
2022/04/10 04:19:46;;;;;;;6.55;1.45;;;3.60;99.90;;;;;;5092603;28;20047;-38
2022/04/10 04:22:11;;;;;;;1.65;1.00;;;3.60;99.90;;;;;;5093735;28;20085;-36
2022/04/10 04:24:37;;;;;;;9.85;2.80;;;3.60;99.90;;;;;;5092655;28;20463;-36
2022/04/10 04:27:03;;;;;;;4.70;1.67;;;3.50;99.90;;;;;;5093275;28;20020;-52
2022/04/10 04:29:28;;;;;;;14.60;1.30;;;3.50;99.90;;;;;;5093407;28;20040;-36
2022/04/10 04:31:54;;;;;;;6.50;1.00;;;3.60;99.90;;;;;;5093899;28;20056;-36
2022/04/10 04:34:21;;;;;;;9.57;1.08;;;3.70;99.90;;;;;;5091298;28;20024;-37
2022/04/10 04:36:46;;;;;;;7.90;1.50;;;3.80;99.90;;;;;;5091545;28;20060;-37
2022/04/10 04:39:12;;;;;;;2.13;1.13;;;3.90;99.90;;;;;;5093095;28;20016;-37
2022/04/10 04:41:37;;;;;;;5.72;1.50;;;3.90;99.90;;;;;;5093308;28;20024;-38
2022/04/10 04:44:03;;;;;;;3.55;1.02;;;3.90;99.90;;;;;;5091546;28;20570;-35
2022/04/10 04:46:29;;;;;;;4.97;1.40;;;3.80;99.90;;;;;;5093005;28;20115;-38
2022/04/10 04:48:55;;;;;;;8.43;1.40;;;3.80;99.90;;;;;;5092837;28;20103;-36
2022/04/10 04:51:21;;;;;;;2.13;1.08;;;3.80;99.90;;;;;;5092985;28;20510;-41
2022/04/10 04:53:46;;;;;;;5.82;1.25;;;3.80;99.90;;;;;;5093626;28;20028;-37
2022/04/10 04:56:12;;;;;;;1.63;1.20;;;3.80;99.90;;;;;;5091850;28;20020;-37
2022/04/10 04:58:38;;;;;;;9.95;1.80;;;3.80;99.90;;;;;;5091861;28;20486;-38
2022/04/10 05:01:04;;;;;;;2.00;1.02;;;3.80;99.90;;;;;;5092112;28;20101;-37
2022/04/10 05:03:29;;;;;;;5.32;1.45;;;3.70;99.90;;;;;;5092441;28;20480;-37
2022/04/10 05:05:55;;;;;;;5.00;1.45;;;3.70;99.90;;;;;;5091255;28;20028;-38
2022/04/10 05:08:20;;;;;;;6.10;1.60;;;3.70;99.90;;;;;;5093267;28;20540;-37
2022/04/10 05:10:47;;;;;;;4.75;1.40;;;3.60;99.90;;;;;;5092151;28;20031;-37
2022/04/10 05:13:12;;;;;;;4.68;1.73;;;3.60;99.90;;;;;;5093076;28;20444;-34
2022/04/10 05:15:38;;;;;;;5.97;1.38;;;3.60;99.90;;;;;;5091890;28;20111;-38
2022/04/10 05:18:04;;;;;;;5.03;1.13;;;3.70;99.90;;;;;;5092406;28;20553;-38
2022/04/10 05:20:29;;;;;;;1.25;0.80;;;3.70;99.90;;;;;;5093214;28;20508;-42
2022/04/10 05:22:56;;;;;;;5.85;1.50;;;3.70;99.90;;;;;;5092096;28;20024;-37
2022/04/10 05:25:22;;;;;;;4.93;1.35;;;3.70;99.90;;;;;;5093115;28;20487;-37
2022/04/10 05:27:47;;;;;;;4.55;1.25;;;3.70;99.90;;;;;;5091217;28;20054;-36
2022/04/10 05:30:13;;;;;;;1.65;1.40;;;3.80;99.90;;;;;;5088885;28;20024;-38
2022/04/10 05:32:42;;;;;;;3.22;1.48;;;3.80;99.90;;;;;;5091622;28;20035;-38
2022/04/10 05:35:11;;;;;;;4.07;1.45;;;3.80;99.90;;;;;;5092205;28;20024;-45
2022/04/10 05:37:38;;;;;;;11.65;1.85;;;3.90;99.90;;;;;;5093041;28;20476;-41
2022/04/10 05:40:04;;;;;;;6.95;3.25;;;3.90;99.90;;;;;;5093115;28;20024;-37
2022/04/10 05:42:31;;;;;;;4.85;1.50;;;4.00;99.90;;;;;;5092564;28;20021;-38
2022/04/10 05:45:03;;;;;;;5.90;1.40;;;4.10;99.90;;;;;;5092464;28;20496;-37
2022/04/10 05:47:29;;;;;;;4.80;1.65;;;4.10;99.90;;;;;;5091996;28;20100;-36
2022/04/10 05:49:55;;;;;;;5.45;1.60;;;4.20;99.90;;;;;;5092905;28;20109;-37
2022/04/10 05:52:21;;;;;;;1.63;1.23;;;4.20;99.90;;;;;;5092501;28;20028;-36
2022/04/10 05:54:46;;;;;;;13.13;1.60;;;4.30;99.90;;;;;;5091642;28;20024;-37
2022/04/10 05:57:12;;;;;;;8.40;1.67;;;4.30;99.90;;;;;;5091551;28;20032;-36
2022/04/10 05:59:37;;;;;;;4.93;1.48;;;4.30;99.90;;;;;;5092416;28;20039;-37
2022/04/10 06:02:03;;;;;;;4.10;1.25;;;4.40;99.90;;;;;;5092764;28;20079;-37
2022/04/10 06:04:29;;;;;;;4.63;1.38;;;4.50;99.90;;;;;;5091453;28;20042;-37
2022/04/10 06:06:55;;;;;;;3.53;1.02;;;4.60;99.90;;;;;;5092557;28;20535;-36
2022/04/10 06:09:20;;;;;;;6.95;1.95;;;4.60;99.90;;;;;;5092793;28;20028;-36
2022/04/10 06:11:46;;;;;;;5.47;1.30;;;4.50;99.90;;;;;;5092274;28;20392;-37
2022/04/10 06:14:11;;;;;;;7.75;1.20;;;4.60;99.90;;;;;;5091517;28;20036;-37
2022/04/10 06:16:37;;;;;;;9.50;1.38;;;4.60;99.90;;;;;;5090291;28;20028;-36
2022/04/10 06:19:02;;;;;;;1.83;0.80;;;4.60;99.90;;;;;;5090625;28;20404;-38
2022/04/10 06:21:28;;;;;;;6.65;1.23;;;4.70;99.90;;;;;;5092254;28;20107;-38
2022/04/10 06:23:54;;;;;;;3.58;1.48;;;4.80;99.90;;;;;;5092280;28;20027;-36
2022/04/10 06:26:20;;;;;;;6.03;1.10;;;4.80;99.90;;;;;;5093064;28;20020;-35
2022/04/10 06:28:45;;;;;;;5.40;1.40;;;4.90;99.90;;;;;;5094699;28;20578;-36
2022/04/10 06:31:11;;;;;;;4.22;1.52;;;5.00;99.90;;;;;;5094989;28;20028;-37
2022/04/10 06:33:37;;;;;;;5.07;1.10;;;5.10;99.90;;;;;;5094809;28;20030;-36
2022/04/10 06:36:05;;;;;;;0.68;0.65;;;5.10;99.90;;;;;;5095832;28;20034;-36
2022/04/10 06:38:31;;;;;;;4.10;1.05;;;5.30;99.90;;;;;;5094253;28;20054;-36
2022/04/10 06:40:56;;;;;;;3.88;0.90;;;5.50;99.90;;;;;;5095461;28;20020;-37
2022/04/10 06:43:22;;;;;;;7.40;0.85;;;5.60;99.90;;;;;;5096146;28;20531;-36
2022/04/10 06:45:48;;;;;;;5.35;1.23;;;5.50;99.90;;;;;;5096033;28;20054;-37
2022/04/10 06:48:14;;;;;;;4.20;0.90;;;5.40;99.90;;;;;;5094319;28;20471;-34
2022/04/10 06:50:39;;;;;;;1.17;1.02;;;5.30;99.90;;;;;;5095536;28;20471;-37
2022/04/10 06:53:05;;;;;;;1.60;0.70;;;5.10;99.90;;;;;;5095725;28;20090;-35
2022/04/10 06:55:31;;;;;;;1.90;0.40;;;5.10;99.90;;;;;;5085470;28;20024;-36
2022/04/10 06:57:57;;;;;;;1.90;0.55;;;5.00;99.90;;;;;;5079421;28;20028;-36
2022/04/10 07:00:23;;;;;;;2.60;0.70;;;5.10;99.90;;;;;;5091132;28;20111;-37
2022/04/10 07:02:48;;;;;;;1.77;0.50;;;5.10;99.90;;;;;;5094472;28;20027;-35
2022/04/10 07:05:14;;;;;;;7.55;1.23;;;5.10;99.90;;;;;;5094564;28;20106;-40
2022/04/10 07:07:40;;;;;;;1.75;0.63;;;5.20;99.90;;;;;;5091703;28;20030;-36
2022/04/10 07:10:06;;;;;;;3.22;0.43;;;5.30;99.90;;;;;;5083172;28;21082;-36
2022/04/10 07:12:32;;;;;;;5.15;0.43;;;5.50;99.90;;;;;;5089084;28;20024;-39
2022/04/10 07:15:01;;;;;;;5.28;1.35;;;5.60;99.90;;;;;;5093356;28;20044;-36
2022/04/10 07:17:27;;;;;;;2.65;1.05;;;5.80;99.90;;;;;;5085363;28;20297;-37
2022/04/10 07:19:53;;;;;;;2.92;0.82;;;5.90;99.90;;;;;;5093696;28;20043;-38
2022/04/10 07:25:03;;;;;;;0.98;0.50;;;6.20;99.90;;;;;;5095284;28;20035;-35
2022/04/10 07:27:29;;;;;;;1.35;0.68;;;6.50;99.90;;;;;;5095489;28;20032;-36
2022/04/10 07:29:55;;;;;;;2.45;0.80;;;6.70;99.90;;;;;;5087630;28;20035;-36
2022/04/10 07:32:20;;;;;;;0.82;0.70;;;7.00;99.90;;;;;;5092418;28;20496;-37
2022/04/10 07:34:46;;;;;;;4.38;0.57;;;7.00;99.90;;;;;;5093910;28;20092;-36
2022/04/10 07:37:11;;;;;;;1.15;0.70;;;7.20;99.90;;;;;;5094873;28;20056;-36
2022/04/10 07:39:37;;;;;;;4.47;0.70;;;7.30;99.90;;;;;;5092902;28;20027;-37
2022/04/10 07:42:03;;;;;;;4.47;0.90;;;7.30;99.90;;;;;;5093901;28;20016;-35
2022/04/10 07:44:29;;;;;;;3.65;0.85;;;7.40;99.90;;;;;;5090438;28;20024;-36
2022/04/10 07:49:39;;;;;;;1.00;0.80;;;7.50;99.90;;;;;;5094253;28;20050;-36
2022/04/10 07:52:05;;;;;;;2.28;0.73;;;7.60;99.90;;;;;;5092702;28;20102;-37
2022/04/10 07:54:30;;;;;;;4.38;0.98;;;7.80;99.90;;;;;;5094712;28;20521;-40
2022/04/10 07:56:56;;;;;;;6.25;1.35;;;7.90;99.90;;;;;;5094572;28;20032;-38
2022/04/10 07:59:23;;;;;;;3.42;0.88;;;8.10;99.90;;;;;;5098006;28;20475;-46
2022/04/10 08:01:49;;;;;;;2.55;0.80;;;8.10;99.90;;;;;;5095594;28;20368;-36
2022/04/10 08:04:15;;;;;;;2.58;0.77;;;8.00;99.90;;;;;;5093673;28;20051;-37
2022/04/10 08:06:40;;;;;;;3.88;0.95;;;8.00;99.90;;;;;;5092731;28;20040;-37
2022/04/10 08:09:06;;;;;;;1.35;1.05;;;8.10;99.90;;;;;;5088024;28;20032;-38
2022/04/10 08:11:32;;;;;;;2.80;1.30;;;8.20;99.90;;;;;;5074930;28;20021;-35
2022/04/10 08:13:57;;;;;;;10.35;1.48;;;8.30;99.90;;;;;;5088744;28;20027;-36
2022/04/10 08:16:23;;;;;;;3.90;1.15;;;8.30;99.90;;;;;;5092829;28;20050;-37
2022/04/10 08:18:48;;;;;;;1.48;0.95;;;8.30;99.90;;;;;;5090399;28;20032;-35
2022/04/10 08:21:14;;;;;;;3.40;0.98;;;8.30;99.90;;;;;;5092301;28;20020;-36
2022/04/10 08:23:40;;;;;;;6.95;0.98;;;8.50;99.90;;;;;;5093400;28;20015;-36
2022/04/10 08:26:05;;;;;;;6.20;1.17;;;8.50;99.90;;;;;;5090843;28;20024;-35
2022/04/10 08:28:32;;;;;;;1.63;0.77;;;8.60;99.90;;;;;;5087760;28;20056;-36
2022/04/10 08:30:58;;;;;;;2.00;0.80;;;8.70;99.90;;;;;;5091419;28;20036;-37
2022/04/10 08:33:23;;;;;;;5.88;1.17;;;8.90;99.90;;;;;;5093633;28;20498;-37
2022/04/10 08:35:49;;;;;;;17.65;2.20;;;9.10;99.90;;;;;;5093287;28;20063;-37
2022/04/10 08:38:14;;;;;;;1.55;0.80;;;9.30;99.90;;;;;;5093229;28;20022;-38
2022/04/10 08:40:44;;;;;;;5.00;1.00;;;9.60;99.90;;;;;;5088686;28;20060;-38
2022/04/10 08:43:10;;;;;;;1.92;0.90;;;9.80;99.90;;;;;;5091013;28;20460;-37
2022/04/10 08:45:38;;;;;;;4.90;0.55;;;9.80;99.90;;;;;;5092456;28;20024;-37
2022/04/10 08:48:04;;;;;;;;;;;9.50;99.90;;;;;;5094065;28;20094;-37
2022/04/10 08:50:30;;;;;;;4.72;0.68;;;9.30;99.90;;;;;;5091058;28;19922;-37
2022/04/10 08:52:58;;;;;;;4.57;1.10;;;9.00;99.90;;;;;;5090368;28;20020;-38
2022/04/10 08:55:24;;;;;;;9.50;1.20;;;8.90;99.90;;;;;;5088268;28;20019;-37
2022/04/10 08:57:50;;;;;;;3.25;0.95;;;9.20;99.90;;;;;;5091158;28;20020;-34
2022/04/10 09:00:18;;;;;;;3.60;0.65;;;9.60;99.90;;;;;;5088158;28;20031;-37
2022/04/10 09:02:45;;;;;;;;;;;9.70;99.90;;;;;;5092069;28;20020;-37
2022/04/10 09:05:16;;;;;;;5.25;1.20;;;9.70;99.90;;;;;;5090415;28;20351;-37
2022/04/10 09:08:11;;;;;;;2.30;1.02;;;9.50;99.90;;;;;;5090127;28;20016;-37
2022/04/10 09:11:03;;;;;;;4.47;0.77;;;9.40;99.90;;;;;;5092627;28;20032;-38
2022/04/10 09:13:39;;;;;;;2.00;0.70;;;9.60;99.90;;;;;;5092724;28;20498;-38
2022/04/10 09:16:10;;;;;;;7.28;0.90;;;9.80;99.90;;;;;;5093253;28;20028;-39
2022/04/10 09:18:54;;;;;;;3.67;0.85;;;10.20;99.90;;;;;;5091985;28;20590;-36
2022/04/10 09:21:32;;;;;;;2.65;0.50;;;10.40;99.90;;;;;;5092596;28;20499;-38
2022/04/10 09:24:12;;;;;;;2.90;0.75;;;10.30;99.90;;;;;;5093623;28;20075;-38
2022/04/10 09:26:50;;;;;;;4.60;0.82;;;10.20;99.90;;;;;;5093153;28;20430;-38
2022/04/10 09:29:20;;;;;;;11.00;0.95;;;10.00;99.90;;;;;;5089921;28;20379;-37
2022/04/10 09:31:47;;;;;;;7.97;1.00;;;9.90;99.90;;;;;;5092451;28;20024;-39
2022/04/10 09:34:21;;;;;;;8.23;1.33;;;9.80;99.90;;;;;;5093146;28;20537;-38
2022/04/10 09:36:57;;;;;;;4.38;1.42;;;10.00;99.90;;;;;;5091428;28;20119;-37
2022/04/10 09:39:31;;;;;;;5.50;0.90;;;10.30;99.90;;;;;;5091400;28;20091;-37
2022/04/10 09:42:08;;;;;;;7.78;1.00;;;10.50;99.90;;;;;;5089415;28;20037;-37
2022/04/10 09:44:35;;;;;;;1.40;0.35;;;10.30;99.90;;;;;;5089846;28;20357;-37
2022/04/10 09:47:08;;;;;;;2.35;0.77;;;9.90;99.90;;;;;;5089794;28;20474;-37
2022/04/10 09:49:37;;;;;;;6.07;0.77;;;9.80;99.90;;;;;;5092697;28;20107;-37
2022/04/10 09:52:10;;;;;;;5.75;0.85;;;9.90;99.90;;;;;;5087447;28;20544;-38
2022/04/10 09:54:38;;;;;;;2.78;0.63;;;10.20;99.90;;;;;;5091378;28;20020;-39
2022/04/10 09:57:05;;;;;;;7.50;1.00;;;10.30;99.90;;;;;;5089423;28;20127;-38
2022/04/10 09:59:37;;;;;;;6.38;1.13;;;10.30;99.90;;;;;;5092249;28;20376;-39
2022/04/10 10:02:05;;;;;;;8.48;0.63;;;10.30;99.90;;;;;;5094178;28;20023;-36
2022/04/10 10:04:33;;;;;;;2.50;0.70;;;10.70;99.90;;;;;;5097866;28;20036;-38
2022/04/10 10:07:00;;;;;;;1.80;0.75;;;10.90;99.90;;;;;;5096080;28;20104;-38
2022/04/10 10:09:26;;;;;;;2.88;0.80;;;11.20;99.90;;;;;;5097010;28;20024;-38
2022/04/10 10:11:52;;;;;;;3.53;0.90;;;11.30;99.90;;;;;;5102732;28;20385;-36
2022/04/10 10:14:18;;;;;;;1.17;0.50;;;11.50;99.90;;;;;;5085242;28;20464;-36
2022/04/10 10:16:45;;;;;;;4.80;0.75;;;11.70;99.90;;;;;;5093505;28;20092;-37
2022/04/10 10:19:11;;;;;;;1.60;0.70;;;11.90;99.90;;;;;;5093989;28;20017;-37
2022/04/10 10:21:37;;;;;;;1.60;0.85;;;12.00;99.90;;;;;;5095403;28;20386;-37
2022/04/10 10:24:04;;;;;;;2.63;0.77;;;12.30;99.90;;;;;;5096009;28;20024;-38
2022/04/10 10:26:42;;;;;;;4.85;0.85;;;12.10;99.90;;;;;;5094162;28;20491;-38
2022/04/10 10:29:20;;;;;;;1.98;0.77;;;11.70;99.90;;;;;;5094482;28;20588;-37
2022/04/10 10:32:15;;;;;;;3.40;0.80;;;11.20;99.90;;;;;;5081652;28;20020;-39
2022/04/10 10:34:42;;;;;;;1.88;0.50;;;10.70;99.90;;;;;;5089921;28;20025;-38
2022/04/10 10:37:08;;;;;;;3.90;0.28;;;10.60;99.90;;;;;;5094178;28;20036;-39
2022/04/10 10:39:49;;;;;;;2.25;0.77;;;10.80;99.90;;;;;;5082237;28;20095;-39
2022/04/10 10:42:15;;;;;;;8.68;0.55;;;11.10;99.90;;;;;;5094856;28;20021;-36
2022/04/10 10:44:43;;;;;;;1.73;0.60;;;11.60;99.90;;;;;;5087233;28;20087;-38
2022/04/10 10:47:39;;;;;;;;;;;11.50;99.90;;;;;;5079423;28;20079;-39
2022/04/10 10:50:27;;;;;;;3.20;0.70;;;11.50;99.90;;;;;;5067034;28;20383;-37
2022/04/10 10:53:05;;;;;;;0.90;0.40;;;11.40;99.90;;;;;;5095897;28;20032;-38
2022/04/10 10:55:44;;;;;;;6.60;0.55;;;10.90;99.90;;;;;;5096003;28;20432;-38
2022/04/10 10:58:15;;;;;;;2.40;0.73;;;10.60;99.90;;;;;;5091197;28;20471;-38
2022/04/10 11:00:44;;;;;;;2.38;0.70;;;10.80;99.90;;;;;;5095162;28;20059;-38
2022/04/10 11:03:10;;;;;;;1.67;0.50;;;11.00;99.90;;;;;;5092077;28;20077;-37
2022/04/10 11:05:36;;;;;;;4.10;1.40;;;11.20;99.90;;;;;;5092856;28;20028;-39
2022/04/10 11:08:07;;;;;;;4.85;0.85;;;11.50;99.90;;;;;;5092681;28;20108;-36
2022/04/10 11:10:37;;;;;;;2.10;0.70;;;11.40;99.90;;;;;;5094526;28;20028;-37
2022/04/10 11:13:07;;;;;;;0.63;0.57;;;11.40;99.90;;;;;;5093229;28;20042;-38
2022/04/10 11:15:47;;;;;;;1.55;0.40;;;11.60;99.90;;;;;;5095708;28;20552;-38
2022/04/10 11:18:34;;;;;;;1.73;0.85;;;11.40;99.90;;;;;;5090462;28;20024;-37
2022/04/10 11:21:17;;;;;;;12.27;0.80;;;11.20;99.90;;;;;;5084274;28;20036;-37
2022/04/10 11:23:45;;;;;;;3.85;0.77;;;11.20;99.90;;;;;;5092870;28;20507;-38
2022/04/10 11:26:16;;;;;;;4.13;0.80;;;11.20;99.90;;;;;;5080078;28;20523;-38
2022/04/10 11:29:00;;;;;;;4.70;0.80;;;11.10;99.90;;;;;;5091495;28;20414;-40
2022/04/10 11:31:34;;;;;;;2.92;0.55;;;11.20;99.90;;;;;;5093150;28;20502;-37
2022/04/10 11:34:28;;;;;;;1.33;0.50;;;11.60;99.90;;;;;;5094981;28;20523;-39
2022/04/10 11:37:00;;;;;;;0.45;0.40;;;12.20;99.90;;;;;;5086310;28;20093;-38
2022/04/10 11:39:36;;;;;;;5.78;0.57;;;12.30;99.30;;;;;;5090822;28;20384;-38
2022/04/10 11:42:11;;;;;;;3.33;0.68;;;12.70;98.60;;;;;;5093652;28;20073;-39
2022/04/10 11:44:46;;;;;;;3.60;0.85;;;12.60;99.90;;;;;;5092342;28;20357;-38
2022/04/10 11:47:12;;;;;;;1.55;0.50;;;12.50;99.90;;;;;;5088862;28;20502;-38
2022/04/10 11:49:38;;;;;;;3.70;0.50;;;12.30;99.90;;;;;;5083499;28;20517;-38
2022/04/10 11:52:05;;;;;;;7.72;1.08;;;12.10;99.90;;;;;;5074526;28;20025;-38
2022/04/10 11:54:36;;;;;;;2.10;0.50;;;11.80;99.90;;;;;;5078989;28;20476;-37
2022/04/10 11:57:07;;;;;;;1.15;0.80;;;11.80;99.90;;;;;;5089331;28;20115;-38
2022/04/10 11:59:38;;;;;;;3.05;0.73;;;11.80;99.90;;;;;;5089129;28;20024;-39
2022/04/10 12:02:07;;;;;;;3.13;0.68;;;12.00;99.90;;;;;;5076333;28;20020;-38
2022/04/10 12:04:36;;;;;;;4.15;0.82;;;12.20;98.70;;;;;;5057660;28;20077;-35
2022/04/10 12:07:26;;;;;;;2.35;0.70;;;12.50;99.90;;;;;;5090915;28;20383;-36
2022/04/10 12:09:52;;;;;;;2.95;1.00;;;12.80;99.90;;;;;;5082054;28;20046;-38
2022/04/10 12:12:38;;;;;;;4.90;1.33;;;12.70;99.90;;;;;;5088659;28;20032;-41
2022/04/10 12:15:17;;;;;;;5.35;0.55;;;12.60;99.90;;;;;;5091610;28;20024;-39
2022/04/10 12:17:43;;;;;;;4.30;0.70;;;12.20;99.30;;;;;;5086238;28;20798;-37
2022/04/10 12:20:10;;;;;;;2.55;1.15;;;12.10;99.90;;;;;;5090239;28;20139;-38
2022/04/10 12:22:36;;;;;;;8.25;0.70;;;12.40;99.90;;;;;;5085138;28;20111;-38
2022/04/10 12:25:02;;;;;;;6.10;1.25;;;12.50;99.90;;;;;;5082082;28;20446;-37
2022/04/10 12:27:28;;;;;;;0.60;0.50;;;11.90;99.60;;;;;;5090912;28;20480;-37
2022/04/10 12:29:55;;;;;;;6.35;0.90;;;11.40;99.90;;;;;;5090452;28;20494;-36
2022/04/10 12:32:22;;;;;;;0.55;0.30;;;11.30;99.40;;;;;;5092626;28;20494;-38
2022/04/10 12:34:47;;;;;;;2.75;0.60;;;11.40;99.90;;;;;;5093418;28;20490;-38
2022/04/10 12:37:14;;;;;;;3.47;0.57;;;11.90;99.90;;;;;;5083455;28;20024;-39
2022/04/10 12:39:41;;;;;;;2.33;0.40;;;12.40;99.90;;;;;;5091571;28;20024;-40
2022/04/10 12:42:10;;;;;;;3.60;0.90;;;12.90;98.40;;;;;;5091677;28;20107;-39
2022/04/10 12:44:37;;;;;;;4.97;1.10;;;13.30;96.30;;;;;;5093939;28;20020;-38
2022/04/10 12:47:06;;;;;;;2.13;1.20;;;13.70;96.70;;;;;;5093637;28;20024;-38
2022/04/10 12:49:32;;;;;;;3.10;0.57;;;14.00;97.50;;;;;;5093891;28;20502;-38
2022/04/10 12:52:05;;;;;;;2.85;0.63;;;13.80;96.10;;;;;;5093392;28;20106;-38
2022/04/10 12:54:41;;;;;;;1.30;0.40;;;13.90;96.70;;;;;;5093426;28;20028;-37
2022/04/10 12:57:24;;;;;;;3.55;0.52;;;14.10;95.80;;;;;;5092493;28;20020;-37
2022/04/10 12:59:50;;;;;;;4.55;0.82;;;13.80;97.00;;;;;;5093578;28;20023;-38
2022/04/10 13:02:29;;;;;;;4.70;0.50;;;13.30;97.60;;;;;;5093419;28;20069;-37
2022/04/10 13:05:04;;;;;;;2.13;0.80;;;12.80;97.20;;;;;;5073269;28;20059;-36